Terminal Aerodrome Forecast
Issued by NWS Brownsville, TX

Home | Current Version | Previous Version | Text Only | Print | Product List | Glossary On
Versions: 1 2 3 4 5 6 7 8 9 10 11 12 13 14 15 16
000
FTUS44 KBRO 060533
TAFHRL
TAF
KHRL 060533Z 0606/0706 15011KT P6SM FEW023
     FM061400 16018G24KT P6SM BKN025
     FM061700 16022G28KT P6SM SCT035 BKN040
     FM062300 15012G18KT P6SM FEW018
     FM070200 15012KT P6SM SKC=

USA.gov is the U.S. government's official web portal to all federal, state and local government web resources and services.